createdAt,value
2022-09-21T11:16:39.453Z,1007.6
2022-09-21T11:21:40.629Z,1007.6
2022-09-21T11:26:37.134Z,1007.5
2022-09-21T11:31:43.005Z,1007.5
2022-09-21T11:36:42.384Z,1007.4
2022-09-21T11:41:45.929Z,1007.4
2022-09-21T11:46:39.654Z,1007.4
2022-09-21T11:51:49.871Z,1007.3
2022-09-21T11:56:41.004Z,1007.3
2022-09-21T12:01:47.424Z,1007.3
2022-09-21T12:06:48.768Z,1007.3
2022-09-21T12:11:39.403Z,1007.2
2022-09-21T12:16:43.489Z,1007.2
2022-09-21T12:21:39.380Z,1007.1
2022-09-21T12:26:39.160Z,1007.1
2022-09-21T12:31:42.236Z,1007
2022-09-21T12:36:41.676Z,1007.1
2022-09-21T12:41:38.829Z,1007
2022-09-21T12:46:39.925Z,1007
2022-09-21T12:51:37.545Z,1006.9
2022-09-21T12:56:41.918Z,1006.9
2022-09-21T13:01:41.605Z,1006.8
2022-09-21T13:07:08.302Z,1006.8
2022-09-21T13:11:50.534Z,1006.8
2022-09-21T13:16:38.497Z,1006.7
2022-09-21T13:21:35.533Z,1006.6
2022-09-21T13:26:39.060Z,1006.6
2022-09-21T13:31:42.173Z,1006.6
2022-09-21T13:36:35.652Z,1006.6
2022-09-21T13:41:58.947Z,1006.6
2022-09-21T13:46:53.630Z,1006.6
2022-09-21T13:51:50.789Z,1006.6
2022-09-21T13:56:35.740Z,1006.4
2022-09-21T14:01:46.407Z,1006.4
2022-09-21T14:06:42.833Z,1006.4
2022-09-21T14:11:38.058Z,1006.4
2022-09-21T14:16:55.357Z,1006.2
2022-09-21T14:21:36.984Z,1006.3
2022-09-21T14:26:49.443Z,1006.3
2022-09-21T14:31:38.089Z,1006.2
2022-09-21T14:36:41.397Z,1006.2
2022-09-21T14:41:40.044Z,1006.1
2022-09-21T14:46:59.738Z,1006
2022-09-21T14:51:55.857Z,1006
2022-09-21T14:56:53.820Z,1005.9
2022-09-21T15:01:39.746Z,1005.9
2022-09-21T15:06:48.456Z,1005.9
2022-09-21T15:11:46.152Z,1005.8
2022-09-21T15:16:41.259Z,1005.8
2022-09-21T15:21:41.735Z,1005.7
2022-09-21T15:26:39.668Z,1005.7
2022-09-21T15:31:41.499Z,1005.7
2022-09-21T15:36:41.718Z,1005.7
2022-09-21T15:41:42.058Z,1005.7
2022-09-21T15:46:42.986Z,1005.7
2022-09-21T15:51:42.797Z,1005.7
2022-09-21T15:56:43.445Z,1005.6
2022-09-21T16:01:44.956Z,1005.6
2022-09-21T16:06:43.565Z,1005.5
2022-09-21T16:11:41.771Z,1005.7
2022-09-21T16:17:05.546Z,1005.6
2022-09-21T16:21:41.807Z,1005.6
2022-09-21T16:26:41.561Z,1005.7
2022-09-21T16:31:49.710Z,1005.6
2022-09-21T16:36:43.289Z,1005.7
2022-09-21T16:41:45.957Z,1005.7
2022-09-21T16:46:41.620Z,1005.7
2022-09-21T16:51:42.052Z,1005.8
2022-09-21T16:56:41.381Z,1005.8
2022-09-21T17:01:42.137Z,1005.9
2022-09-21T17:06:41.981Z,1005.8
2022-09-21T17:11:41.485Z,1005.9
2022-09-21T17:16:44.633Z,1005.8
2022-09-21T17:21:42.051Z,1005.9
2022-09-21T17:26:41.527Z,1005.9
2022-09-21T17:31:41.845Z,1005.9
2022-09-21T17:36:42.153Z,1005.9
2022-09-21T17:41:48.592Z,1005.9
2022-09-21T17:46:50.827Z,1005.9
2022-09-21T17:51:43.348Z,1006
2022-09-21T17:57:50.605Z,1006
2022-09-21T18:02:43.556Z,1006.1
2022-09-21T18:07:45.079Z,1006.1
2022-09-21T18:12:56.765Z,1006.2
2022-09-21T18:17:56.548Z,1006.3
2022-09-21T18:22:55.958Z,1006.3
2022-09-21T18:27:46.792Z,1006.2
2022-09-21T18:32:56.431Z,1006.3
2022-09-21T18:37:55.862Z,1006.3
2022-09-21T18:42:51.453Z,1006.4
2022-09-21T18:47:56.600Z,1006.3
2022-09-21T18:52:53.842Z,1006.4
2022-09-21T18:57:45.774Z,1006.4
2022-09-21T19:03:05.442Z,1006.3
2022-09-21T19:07:53.789Z,1006.4
2022-09-21T19:12:57.364Z,1006.5
2022-09-21T19:18:00.432Z,1006.5
2022-09-21T19:22:54.019Z,1006.4
2022-09-21T19:27:51.744Z,1006.5
2022-09-21T19:32:47.320Z,1006.5
2022-09-21T19:37:46.095Z,1006.5
2022-09-21T19:42:57.641Z,1006.5
2022-09-21T19:47:50.630Z,1006.5
2022-09-21T19:52:46.636Z,1006.5
2022-09-21T19:57:46.289Z,1006.4
2022-09-21T20:02:57.245Z,1006.5
2022-09-21T20:07:50.776Z,1006.4
2022-09-21T20:12:54.678Z,1006.4
2022-09-21T20:17:50.481Z,1006.3
2022-09-21T20:22:46.825Z,1006.4
2022-09-21T20:27:48.965Z,1006.4
2022-09-21T20:32:50.166Z,1006.4
2022-09-21T20:37:46.405Z,1006.4
2022-09-21T20:42:47.354Z,1006.4
2022-09-21T20:47:47.948Z,1006.4
2022-09-21T20:52:47.405Z,1006.4
2022-09-21T20:57:47.431Z,1006.4
2022-09-21T21:02:47.300Z,1006.5
2022-09-21T21:07:47.172Z,1006.4
2022-09-21T21:12:47.191Z,1006.4
2022-09-21T21:17:47.216Z,1006.4
2022-09-21T21:22:49.469Z,1006.4
2022-09-21T21:27:47.352Z,1006.4
2022-09-21T21:32:47.756Z,1006.4
2022-09-21T21:37:46.841Z,1006.4
2022-09-21T21:42:47.725Z,1006.4
2022-09-21T21:47:48.751Z,1006.4
2022-09-21T21:52:49.923Z,1006.4
2022-09-21T21:57:49.900Z,1006.4
2022-09-21T22:02:49.875Z,1006.4
2022-09-21T22:07:51.469Z,1006.3
2022-09-21T22:12:51.340Z,1006.4
2022-09-21T22:17:51.344Z,1006.4
2022-09-21T22:22:51.316Z,1006.4
2022-09-21T22:27:51.130Z,1006.4
2022-09-21T22:32:51.878Z,1006.3
2022-09-21T22:37:52.782Z,1006.3
2022-09-21T22:42:53.611Z,1006.3
2022-09-21T22:47:53.551Z,1006.3
2022-09-21T22:52:53.685Z,1006.2
2022-09-21T22:57:53.637Z,1006.2
2022-09-21T23:02:54.566Z,1006.2
2022-09-21T23:07:53.715Z,1006.1
2022-09-21T23:12:53.413Z,1006.1
2022-09-21T23:17:53.268Z,1006.1
2022-09-21T23:22:53.294Z,1006.1
2022-09-21T23:27:58.254Z,1006.1
2022-09-21T23:32:53.140Z,1006
2022-09-21T23:37:53.173Z,1006.1
2022-09-21T23:42:52.964Z,1006.1
2022-09-21T23:47:53.708Z,1006.1
2022-09-21T23:52:54.827Z,1006.1
2022-09-21T23:57:54.792Z,1006
